createdAt,value
2023-04-15T00:01:29.596Z,99751.10
2023-04-15T00:03:57.841Z,99748.73
2023-04-15T00:06:25.845Z,99754.15
2023-04-15T00:08:53.932Z,99767.52
2023-04-15T00:11:21.271Z,99779.14
2023-04-15T00:13:48.984Z,99784.23
2023-04-15T00:16:16.707Z,99774.02
2023-04-15T00:18:44.068Z,99768.33
2023-04-15T00:21:11.930Z,99773.21
2023-04-15T00:23:39.593Z,99777.46
2023-04-15T00:26:07.498Z,99784.48
2023-04-15T00:28:35.053Z,99794.75
2023-04-15T00:31:04.067Z,99798.90
2023-04-15T00:33:31.632Z,99798.27
2023-04-15T00:35:59.288Z,99799.71
2023-04-15T00:38:26.768Z,99792.06
2023-04-15T00:40:56.085Z,99784.63
2023-04-15T00:43:23.805Z,99788.25
2023-04-15T00:45:53.119Z,99782.36
2023-04-15T00:48:20.990Z,99776.11
2023-04-15T00:50:48.983Z,99768.61
2023-04-15T00:53:16.797Z,99765.05
2023-04-15T00:55:44.925Z,99768.31
2023-04-15T00:58:13.071Z,99764.48
2023-04-15T01:00:43.386Z,99756.81
2023-04-15T01:03:11.437Z,99764.36
2023-04-15T01:05:39.344Z,99772.55
2023-04-15T01:08:07.398Z,99769.58
2023-04-15T01:10:35.623Z,99760.23
2023-04-15T01:13:03.900Z,99764.71
2023-04-15T01:15:32.268Z,99758.30
2023-04-15T01:18:00.416Z,99760.31
2023-04-15T01:20:29.327Z,99761.27
2023-04-15T01:22:56.860Z,99763.46
2023-04-15T01:25:33.696Z,99755.78
2023-04-15T01:28:01.901Z,99761.70
2023-04-15T01:30:33.261Z,99776.09
2023-04-15T01:33:00.882Z,99782.09
2023-04-15T01:35:28.643Z,99784.77
2023-04-15T01:38:05.162Z,99799.06
2023-04-15T01:40:34.567Z,99804.55
2023-04-15T01:43:03.446Z,99801.11
2023-04-15T01:45:31.233Z,99796.89
2023-04-15T01:47:58.733Z,99789.36
2023-04-15T01:50:26.806Z,99776.96
2023-04-15T01:52:56.584Z,99769.27
2023-04-15T01:55:25.174Z,99764.41
2023-04-15T01:57:52.811Z,99759.88
2023-04-15T02:00:22.666Z,99762.63
2023-04-15T02:02:50.781Z,99764.98
2023-04-15T02:05:18.585Z,99765.64
2023-04-15T02:07:48.219Z,99763.90
2023-04-15T02:10:16.291Z,99755.45
2023-04-15T02:12:44.015Z,99745.23
2023-04-15T02:15:12.083Z,99750.69
2023-04-15T02:17:39.600Z,99758.06
2023-04-15T02:20:09.348Z,99748.63
2023-04-15T02:22:37.113Z,99735.90
2023-04-15T02:25:05.651Z,99738.48
2023-04-15T02:27:33.180Z,99738.73
2023-04-15T02:30:01.184Z,99751.42
2023-04-15T02:32:28.837Z,99746.52
2023-04-15T02:34:56.676Z,99749.15
2023-04-15T02:37:26.839Z,99743.19
2023-04-15T02:39:54.439Z,99738.16
2023-04-15T02:42:22.617Z,99731.73
2023-04-15T02:44:50.625Z,99730.48
2023-04-15T02:47:18.786Z,99735.42
2023-04-15T02:49:46.255Z,99739.64
2023-04-15T02:52:13.914Z,99742.38
2023-04-15T02:54:41.488Z,99726.57
2023-04-15T02:57:10.203Z,99712.36
2023-04-15T02:59:38.910Z,99709.45
2023-04-15T03:02:07.975Z,99712.69
2023-04-15T03:04:35.586Z,99723.60
2023-04-15T03:07:05.186Z,99732.45
2023-04-15T03:09:36.026Z,99743.65
2023-04-15T03:12:03.926Z,99753.11
2023-04-15T03:14:31.382Z,99769.30
2023-04-15T03:16:59.118Z,99779.98
2023-04-15T03:19:26.748Z,99795.66
2023-04-15T03:21:54.360Z,99806.26
2023-04-15T03:24:22.112Z,99802.66
2023-04-15T03:26:49.604Z,99791.30
2023-04-15T03:29:17.560Z,99774.40
2023-04-15T03:31:45.430Z,99777.56
2023-04-15T03:34:13.063Z,99780.55
2023-04-15T03:36:40.926Z,99796.64
2023-04-15T03:39:08.647Z,99801.21
2023-04-15T03:41:36.479Z,99793.48
2023-04-15T03:44:04.372Z,99794.00
2023-04-15T03:46:32.399Z,99794.14
2023-04-15T03:49:01.034Z,99791.97
2023-04-15T03:51:29.037Z,99795.80
2023-04-15T03:53:56.618Z,99781.20
2023-04-15T03:56:24.936Z,99787.40
2023-04-15T03:58:53.268Z,99799.23
2023-04-15T04:01:21.684Z,99815.96
2023-04-15T04:03:49.975Z,99829.52
2023-04-15T04:06:18.130Z,99836.52
2023-04-15T04:08:45.801Z,99843.66
2023-04-15T04:11:13.514Z,99851.23
2023-04-15T04:13:41.414Z,99854.98
2023-04-15T04:16:09.186Z,99865.89
2023-04-15T04:18:37.299Z,99860.90
2023-04-15T04:21:05.474Z,99851.89
2023-04-15T04:23:33.257Z,99852.58
2023-04-15T04:26:00.865Z,99856.52
2023-04-15T04:28:28.574Z,99849.96
2023-04-15T04:30:56.466Z,99849.21
2023-04-15T04:33:24.610Z,99848.13
2023-04-15T04:35:52.220Z,99849.54
2023-04-15T04:38:19.895Z,99852.44
2023-04-15T04:40:47.392Z,99857.29
2023-04-15T04:43:15.720Z,99867.55
2023-04-15T04:45:43.307Z,99871.86
2023-04-15T04:48:11.033Z,99862.98
2023-04-15T04:50:38.713Z,99868.58
2023-04-15T04:53:06.319Z,99865.02
2023-04-15T04:55:36.368Z,99873.05
2023-04-15T04:58:03.939Z,99873.60
2023-04-15T05:00:31.447Z,99868.48
2023-04-15T05:02:59.529Z,99860.70
2023-04-15T05:05:27.494Z,99857.58
2023-04-15T05:07:55.309Z,99861.98
2023-04-15T05:10:22.835Z,99866.21
2023-04-15T05:12:51.463Z,99864.66
2023-04-15T05:15:19.203Z,99857.36
2023-04-15T05:17:46.894Z,99851.40
2023-04-15T05:20:15.183Z,99846.88
2023-04-15T05:22:42.714Z,99849.91
2023-04-15T05:25:10.387Z,99855.16
2023-04-15T05:27:38.122Z,99854.64
2023-04-15T05:30:06.863Z,99858.23
2023-04-15T05:32:34.676Z,99852.88
2023-04-15T05:35:02.636Z,99864.48
2023-04-15T05:37:30.314Z,99867.02
2023-04-15T05:39:57.870Z,99868.44
2023-04-15T05:42:25.625Z,99864.94
2023-04-15T05:44:53.160Z,99862.61
2023-04-15T05:47:20.935Z,99866.90
2023-04-15T05:49:48.784Z,99874.41
2023-04-15T05:52:16.396Z,99877.36
2023-04-15T05:54:44.147Z,99881.09
2023-04-15T05:57:11.711Z,99889.56
2023-04-15T05:59:39.376Z,99890.60
2023-04-15T06:02:07.156Z,99898.20
2023-04-15T06:04:34.889Z,99895.73
2023-04-15T06:07:02.615Z,99895.27
2023-04-15T06:09:30.399Z,99888.96
2023-04-15T06:11:59.012Z,99886.98
2023-04-15T06:14:26.925Z,99884.65
2023-04-15T06:16:54.877Z,99877.15
2023-04-15T06:19:22.572Z,99882.69
2023-04-15T06:21:50.365Z,99889.75
2023-04-15T06:24:18.122Z,99894.05
2023-04-15T06:26:45.806Z,99896.38
2023-04-15T06:29:14.053Z,99888.71
2023-04-15T06:31:42.177Z,99883.42
2023-04-15T06:34:10.780Z,99892.77
2023-04-15T06:36:38.288Z,99888.66
2023-04-15T06:39:05.765Z,99888.63
2023-04-15T06:41:33.804Z,99886.73
2023-04-15T06:44:01.725Z,99896.27
2023-04-15T06:46:29.432Z,99903.73
2023-04-15T06:48:57.016Z,99930.85
2023-04-15T06:51:26.635Z,99934.41
2023-04-15T06:53:54.609Z,99937.21
2023-04-15T06:56:23.069Z,99935.66
2023-04-15T06:58:50.950Z,99925.23
2023-04-15T07:01:19.381Z,99926.27
2023-04-15T07:03:47.447Z,99926.16
2023-04-15T07:06:15.122Z,99927.33
2023-04-15T07:08:43.272Z,99934.25
2023-04-15T07:11:11.134Z,99937.82
2023-04-15T07:13:38.834Z,99938.08
2023-04-15T07:16:06.560Z,99938.96
2023-04-15T07:18:34.513Z,99929.33
2023-04-15T07:21:02.476Z,99934.34
2023-04-15T07:23:30.928Z,99947.00
2023-04-15T07:25:58.925Z,99947.45
2023-04-15T07:28:27.288Z,99950.05
2023-04-15T07:30:56.800Z,99946.99
2023-04-15T07:33:24.985Z,99955.21
2023-04-15T07:35:52.884Z,99956.13
2023-04-15T07:38:21.709Z,99958.34
2023-04-15T07:40:49.236Z,99959.94
2023-04-15T07:43:16.885Z,99962.77
2023-04-15T07:45:44.526Z,99966.91
2023-04-15T07:48:12.295Z,99968.33
2023-04-15T07:50:39.966Z,99966.67
2023-04-15T07:53:07.486Z,99976.94
2023-04-15T07:55:35.026Z,99970.67
2023-04-15T07:58:02.649Z,99969.18
2023-04-15T08:00:30.464Z,99978.63
2023-04-15T08:02:59.236Z,99985.05
2023-04-15T08:05:26.892Z,99986.07
2023-04-15T08:07:54.683Z,99989.25
2023-04-15T08:10:23.057Z,99984.80
2023-04-15T08:12:53.740Z,99987.16
2023-04-15T08:15:21.898Z,99987.89
2023-04-15T08:17:49.381Z,99986.22
2023-04-15T08:20:17.266Z,100000.56
2023-04-15T08:22:47.332Z,100006.67
2023-04-15T08:25:15.078Z,99992.88
2023-04-15T08:27:42.668Z,99993.59
2023-04-15T08:30:11.140Z,100000.09
2023-04-15T08:32:38.795Z,99996.60
2023-04-15T08:35:07.467Z,99998.27
2023-04-15T08:37:35.194Z,99992.80
2023-04-15T08:40:03.101Z,99993.04
2023-04-15T08:42:42.381Z,99993.20
2023-04-15T08:45:10.926Z,99993.42
2023-04-15T08:47:39.904Z,99994.54
2023-04-15T08:50:11.272Z,99990.66
2023-04-15T08:52:39.686Z,99993.20
2023-04-15T08:55:09.270Z,99995.50
2023-04-15T08:57:37.904Z,99998.50
2023-04-15T09:00:06.734Z,100003.19
2023-04-15T09:02:34.886Z,100008.89
2023-04-15T09:05:05.861Z,100010.94
2023-04-15T09:07:35.972Z,100018.20
2023-04-15T09:10:04.431Z,100013.54
2023-04-15T09:12:36.533Z,100004.93
2023-04-15T09:15:04.674Z,99996.63
2023-04-15T09:17:34.248Z,99990.52
2023-04-15T09:20:14.186Z,99984.02
2023-04-15T09:22:43.436Z,99996.70
2023-04-15T09:25:22.906Z,99998.17
2023-04-15T09:27:52.263Z,100000.71
2023-04-15T09:30:20.054Z,100004.19
2023-04-15T09:32:51.703Z,100009.70
2023-04-15T09:35:21.763Z,100002.70
2023-04-15T09:37:50.898Z,100005.71
2023-04-15T09:40:36.626Z,100008.10
2023-04-15T09:43:05.690Z,100000.21
2023-04-15T09:45:35.533Z,100007.36
2023-04-15T09:48:24.174Z,100007.75
2023-04-15T09:50:53.474Z,100001.28
2023-04-15T09:53:23.805Z,100001.59
2023-04-15T09:55:53.952Z,99992.02
2023-04-15T09:58:27.117Z,99988.67
2023-04-15T10:00:57.418Z,99996.84
2023-04-15T10:03:36.442Z,100009.80
2023-04-15T10:06:04.985Z,100003.75
2023-04-15T10:08:34.451Z,99997.46
2023-04-15T10:11:02.982Z,99997.54
2023-04-15T10:13:36.767Z,99987.93
2023-04-15T10:16:13.943Z,99997.72
2023-04-15T10:18:45.458Z,100000.11
2023-04-15T10:21:17.858Z,100007.90
2023-04-15T10:23:46.733Z,100019.59
2023-04-15T10:26:16.868Z,100015.88
2023-04-15T10:28:46.800Z,100017.44
2023-04-15T10:31:16.540Z,100012.46
2023-04-15T10:33:45.826Z,100001.05
2023-04-15T10:36:14.975Z,99994.88
2023-04-15T10:38:45.370Z,99991.46
2023-04-15T10:41:27.701Z,99984.73
2023-04-15T10:43:59.214Z,99976.16
2023-04-15T10:46:44.744Z,99970.06
2023-04-15T10:49:14.409Z,99979.58
2023-04-15T10:51:50.844Z,99996.37
2023-04-15T10:54:24.352Z,99997.16
2023-04-15T10:57:08.632Z,99995.83
2023-04-15T10:59:39.616Z,99983.85
2023-04-15T11:02:07.545Z,99967.54
2023-04-15T11:04:55.556Z,99973.14
2023-04-15T11:07:52.728Z,99980.21
2023-04-15T11:10:20.658Z,99982.34
2023-04-15T11:12:58.793Z,99978.78
2023-04-15T11:15:41.176Z,99974.98
2023-04-15T11:18:16.966Z,99967.77
2023-04-15T11:21:07.839Z,99968.20
2023-04-15T11:23:46.254Z,99976.86
2023-04-15T11:26:14.881Z,99973.68
2023-04-15T11:28:46.268Z,99966.59
2023-04-15T11:31:17.239Z,99958.91
2023-04-15T11:33:53.371Z,99957.54
2023-04-15T11:36:20.992Z,99966.86
2023-04-15T11:38:48.598Z,99959.52
2023-04-15T11:41:23.555Z,99960.22
2023-04-15T11:43:52.131Z,99960.73
2023-04-15T11:46:22.215Z,99958.80
2023-04-15T11:48:49.845Z,99966.93
2023-04-15T11:51:18.134Z,99961.06
2023-04-15T11:53:50.652Z,99954.08
2023-04-15T11:56:20.602Z,99961.02
2023-04-15T11:58:52.256Z,99954.95
2023-04-15T12:01:19.935Z,99950.23
2023-04-15T12:03:48.865Z,99951.06
2023-04-15T12:06:25.100Z,99948.02
2023-04-15T12:09:16.171Z,99950.98
2023-04-15T12:11:57.767Z,99950.50
2023-04-15T12:14:30.714Z,99960.47
2023-04-15T12:17:02.646Z,99958.60
2023-04-15T12:19:41.534Z,99958.73
2023-04-15T12:22:11.822Z,99961.23
2023-04-15T12:24:40.171Z,99955.12
2023-04-15T12:27:11.691Z,99952.95
2023-04-15T12:29:42.617Z,99947.28
2023-04-15T12:32:10.011Z,99947.94
2023-04-15T12:34:51.844Z,99935.23
2023-04-15T12:37:19.903Z,99940.13
2023-04-15T12:39:50.117Z,99941.50
2023-04-15T12:42:18.375Z,99946.58
2023-04-15T12:44:46.398Z,99947.95
2023-04-15T12:47:14.040Z,99945.23
2023-04-15T12:49:41.857Z,99949.91
2023-04-15T12:52:09.557Z,99962.79
2023-04-15T12:54:37.098Z,99967.54
2023-04-15T12:57:07.418Z,99969.86
2023-04-15T12:59:36.225Z,99966.73
2023-04-15T13:02:04.646Z,99962.59
2023-04-15T13:04:32.553Z,99960.52
2023-04-15T13:07:01.917Z,99959.35
2023-04-15T13:09:29.531Z,99958.42
2023-04-15T13:11:57.758Z,99956.48
2023-04-15T13:14:25.463Z,99956.14
2023-04-15T13:16:53.795Z,99951.90
2023-04-15T13:19:21.562Z,99960.40
2023-04-15T13:21:49.284Z,99953.36
2023-04-15T13:24:18.099Z,99954.69
2023-04-15T13:26:46.880Z,99952.98
2023-04-15T13:29:15.602Z,99959.70
2023-04-15T13:31:43.594Z,99956.70
2023-04-15T13:34:11.350Z,99961.91
2023-04-15T13:36:39.201Z,99960.04
2023-04-15T13:39:06.743Z,99964.34
2023-04-15T13:41:34.361Z,99969.90
2023-04-15T13:44:02.737Z,99971.88
2023-04-15T13:46:31.479Z,99958.36
2023-04-15T13:48:59.545Z,99958.21
2023-04-15T13:51:27.409Z,99965.14
2023-04-15T13:53:55.406Z,99967.77
2023-04-15T13:56:23.460Z,99955.23
2023-04-15T13:58:52.754Z,99961.54
2023-04-15T14:01:20.895Z,99965.56
2023-04-15T14:03:48.975Z,99965.79
2023-04-15T14:06:17.103Z,99969.85
2023-04-15T14:08:45.070Z,99966.45
2023-04-15T14:11:13.155Z,99968.06
2023-04-15T14:13:41.286Z,99962.61
2023-04-15T14:16:09.289Z,99965.05
2023-04-15T14:18:37.486Z,99969.79
2023-04-15T14:21:06.760Z,99977.94
2023-04-15T14:23:34.477Z,99974.42
2023-04-15T14:26:02.586Z,99976.16
2023-04-15T14:28:30.150Z,99978.96
2023-04-15T14:30:57.981Z,99985.20
2023-04-15T14:33:26.012Z,99981.49
2023-04-15T14:35:53.630Z,99982.38
2023-04-15T14:38:22.320Z,99987.64
2023-04-15T14:40:50.556Z,99995.06
2023-04-15T14:43:18.212Z,99991.52
2023-04-15T14:45:46.510Z,99990.39
2023-04-15T14:48:14.335Z,99991.41
2023-04-15T14:50:42.521Z,99986.70
2023-04-15T14:53:10.395Z,99985.85
2023-04-15T14:55:38.796Z,99984.56
2023-04-15T14:58:10.332Z,99991.48
2023-04-15T15:00:41.573Z,99992.81
2023-04-15T15:03:14.368Z,99990.69
2023-04-15T15:05:46.362Z,99989.77
2023-04-15T15:08:14.474Z,99994.23
2023-04-15T15:10:49.070Z,100000.17
2023-04-15T15:13:18.738Z,100008.41
2023-04-15T15:15:48.911Z,100009.24
2023-04-15T15:18:19.113Z,100017.49
2023-04-15T15:20:47.895Z,100021.94
2023-04-15T15:23:15.922Z,100016.35
2023-04-15T15:25:45.622Z,100018.66
2023-04-15T15:28:13.491Z,100019.20
2023-04-15T15:30:41.735Z,100011.06
2023-04-15T15:33:10.671Z,100014.20
2023-04-15T15:35:39.299Z,100016.55
2023-04-15T15:38:07.737Z,100017.30
2023-04-15T15:40:35.728Z,100017.52
2023-04-15T15:43:04.367Z,100015.94
2023-04-15T15:45:32.446Z,100010.48
2023-04-15T15:48:01.937Z,100006.73
2023-04-15T15:50:29.925Z,100014.05
2023-04-15T15:52:58.377Z,100023.22
2023-04-15T15:55:27.090Z,100019.39
2023-04-15T15:57:55.105Z,100025.59
2023-04-15T16:00:23.332Z,100029.12
2023-04-15T16:05:29.140Z,100026.46
2023-04-15T16:07:57.567Z,100029.56
2023-04-15T16:10:25.484Z,100028.34
2023-04-15T16:12:53.735Z,100023.16
2023-04-15T16:15:24.910Z,100026.77
2023-04-15T16:17:52.755Z,100033.29
2023-04-15T16:20:20.198Z,100025.30
2023-04-15T16:22:47.630Z,100026.70
2023-04-15T16:25:15.417Z,100027.81
2023-04-15T16:27:54.091Z,100033.93
2023-04-15T16:30:28.495Z,100033.13
2023-04-15T16:32:57.206Z,100038.66
2023-04-15T16:35:25.277Z,100043.34
2023-04-15T16:37:53.080Z,100046.92
2023-04-15T16:40:20.820Z,100052.23
2023-04-15T16:42:50.186Z,100057.64
2023-04-15T16:45:18.056Z,100058.43
2023-04-15T16:47:45.929Z,100064.66
2023-04-15T16:50:13.554Z,100071.80
2023-04-15T16:52:41.298Z,100076.35
2023-04-15T16:55:09.206Z,100073.33
2023-04-15T16:58:00.721Z,100081.41
2023-04-15T17:00:24.910Z,100080.67
2023-04-15T17:02:53.023Z,100079.85
2023-04-15T17:05:21.115Z,100082.50
2023-04-15T17:07:49.155Z,100084.83
2023-04-15T17:10:17.038Z,100088.73
2023-04-15T17:12:44.950Z,100090.81
2023-04-15T17:15:12.696Z,100093.23
2023-04-15T17:17:40.285Z,100104.41
2023-04-15T17:20:08.287Z,100113.27
2023-04-15T17:22:35.800Z,100119.02
2023-04-15T17:25:04.292Z,100122.21
2023-04-15T17:27:32.248Z,100127.63
2023-04-15T17:29:59.872Z,100139.60
2023-04-15T17:32:33.723Z,100138.77
2023-04-15T17:35:05.570Z,100151.48
2023-04-15T17:37:34.597Z,100154.70
2023-04-15T17:40:02.743Z,100161.59
2023-04-15T17:42:30.490Z,100167.58
2023-04-15T17:44:57.928Z,100169.27
2023-04-15T17:47:39.198Z,100171.54
2023-04-15T17:50:12.207Z,100179.34
2023-04-15T17:52:39.962Z,100186.11
2023-04-15T17:55:08.354Z,100194.86
2023-04-15T17:57:36.278Z,100201.08
2023-04-15T18:00:06.436Z,100203.64
2023-04-15T18:02:41.230Z,100211.65
2023-04-15T18:05:09.876Z,100211.48
2023-04-15T18:07:37.826Z,100207.85
2023-04-15T18:10:07.794Z,100214.55
2023-04-15T18:12:35.826Z,100222.81
2023-04-15T18:15:04.306Z,100226.33
2023-04-15T18:17:31.975Z,100229.41
2023-04-15T18:19:59.917Z,100225.98
2023-04-15T18:22:27.550Z,100231.61
2023-04-15T18:24:58.569Z,100238.29
2023-04-15T18:27:27.223Z,100242.36
2023-04-15T18:29:55.390Z,100243.02
2023-04-15T18:32:23.386Z,100249.11
2023-04-15T18:34:51.288Z,100254.20
2023-04-15T18:37:19.117Z,100255.94
2023-04-15T18:39:47.093Z,100255.37
2023-04-15T18:42:15.092Z,100258.80
2023-04-15T18:44:42.875Z,100267.31
2023-04-15T18:47:10.591Z,100263.42
2023-04-15T18:49:38.733Z,100267.75
2023-04-15T18:52:06.646Z,100267.84
2023-04-15T18:54:34.282Z,100271.98
2023-04-15T18:57:03.638Z,100272.36
2023-04-15T18:59:32.080Z,100279.08
2023-04-15T19:02:00.935Z,100284.17
2023-04-15T19:04:29.318Z,100280.59
2023-04-15T19:06:58.629Z,100281.04
2023-04-15T19:09:28.378Z,100284.98
2023-04-15T19:11:57.177Z,100290.20
2023-04-15T19:14:25.034Z,100293.20
2023-04-15T19:16:52.939Z,100294.70
2023-04-15T19:19:20.646Z,100298.20
2023-04-15T19:21:49.552Z,100303.08
2023-04-15T19:24:17.699Z,100309.31
2023-04-15T19:26:52.326Z,100314.42
2023-04-15T19:29:20.036Z,100316.34
2023-04-15T19:31:47.625Z,100318.89
2023-04-15T19:34:15.486Z,100322.65
2023-04-15T19:36:43.427Z,100322.08
2023-04-15T19:39:11.180Z,100322.73
2023-04-15T19:41:38.891Z,100332.23
2023-04-15T19:44:06.689Z,100331.45
2023-04-15T19:46:34.996Z,100326.34
2023-04-15T19:49:03.520Z,100336.98
2023-04-15T19:51:31.491Z,100334.60
2023-04-15T19:53:59.372Z,100340.08
2023-04-15T19:56:26.984Z,100336.19
2023-04-15T19:58:55.045Z,100336.67
2023-04-15T20:01:22.891Z,100336.94
2023-04-15T20:03:54.001Z,100339.18
2023-04-15T20:06:21.879Z,100340.48
2023-04-15T20:08:49.600Z,100341.81
2023-04-15T20:11:17.226Z,100340.17
2023-04-15T20:13:44.825Z,100344.44
2023-04-15T20:16:12.962Z,100351.85
2023-04-15T20:18:40.928Z,100356.41
2023-04-15T20:21:08.693Z,100360.78
2023-04-15T20:23:37.856Z,100356.05
2023-04-15T20:26:06.145Z,100357.89
2023-04-15T20:28:33.933Z,100361.39
2023-04-15T20:31:01.702Z,100360.44
2023-04-15T20:33:29.384Z,100360.33
2023-04-15T20:35:56.885Z,100354.88
2023-04-15T20:38:24.608Z,100358.14
2023-04-15T20:40:52.285Z,100353.86
2023-04-15T20:43:21.301Z,100357.38
2023-04-15T20:45:50.135Z,100361.83
2023-04-15T20:48:18.825Z,100361.36
2023-04-15T20:50:46.679Z,100365.83
2023-04-15T20:53:14.417Z,100367.17
2023-04-15T20:55:43.995Z,100369.84
2023-04-15T20:58:11.744Z,100372.69
2023-04-15T21:00:39.522Z,100377.30
2023-04-15T21:03:07.335Z,100383.98
2023-04-15T21:05:35.125Z,100382.55
2023-04-15T21:08:03.899Z,100381.69
2023-04-15T21:10:34.680Z,100374.55
2023-04-15T21:13:02.538Z,100379.19
2023-04-15T21:15:30.043Z,100380.55
2023-04-15T21:17:57.726Z,100378.91
2023-04-15T21:20:25.328Z,100379.73
2023-04-15T21:22:52.977Z,100383.77
2023-04-15T21:25:20.721Z,100385.76
2023-04-15T21:27:48.288Z,100387.70
2023-04-15T21:30:15.926Z,100387.84
2023-04-15T21:32:43.516Z,100391.30
2023-04-15T21:35:11.080Z,100395.08
2023-04-15T21:37:38.712Z,100393.20
2023-04-15T21:40:07.353Z,100395.71
2023-04-15T21:42:35.086Z,100399.84
2023-04-15T21:45:03.050Z,100403.48
2023-04-15T21:47:31.230Z,100405.95
2023-04-15T21:50:18.877Z,100401.84
2023-04-15T21:52:46.475Z,100410.52
2023-04-15T21:55:14.011Z,100411.05
2023-04-15T21:57:41.707Z,100414.77
2023-04-15T22:00:10.398Z,100421.56
2023-04-15T22:02:37.983Z,100424.44
2023-04-15T22:05:07.305Z,100421.73
2023-04-15T22:07:35.805Z,100421.27
2023-04-15T22:10:03.545Z,100422.86
2023-04-15T22:12:31.337Z,100423.95
2023-04-15T22:14:58.942Z,100427.77
2023-04-15T22:17:27.201Z,100423.41
2023-04-15T22:19:54.880Z,100424.83
2023-04-15T22:22:22.373Z,100425.54
2023-04-15T22:25:10.210Z,100432.65
2023-04-15T22:27:37.871Z,100433.52
2023-04-15T22:30:06.301Z,100435.02
2023-04-15T22:32:33.910Z,100428.56
2023-04-15T22:35:01.850Z,100425.41
2023-04-15T22:37:30.068Z,100428.34
2023-04-15T22:39:58.174Z,100432.77
2023-04-15T22:42:25.968Z,100430.04
2023-04-15T22:44:53.536Z,100431.74
2023-04-15T22:47:20.925Z,100432.77
2023-04-15T22:49:48.455Z,100431.26
2023-04-15T22:52:29.417Z,100425.52
2023-04-15T22:54:58.487Z,100422.48
2023-04-15T22:57:27.593Z,100422.20
2023-04-15T22:59:55.534Z,100429.72
2023-04-15T23:02:23.397Z,100429.60
2023-04-15T23:04:51.268Z,100435.73
2023-04-15T23:07:19.048Z,100445.56
2023-04-15T23:09:46.723Z,100448.45
2023-04-15T23:12:14.448Z,100444.02
2023-04-15T23:14:42.341Z,100451.59
2023-04-15T23:17:10.260Z,100446.42
2023-04-15T23:19:37.833Z,100450.11
2023-04-15T23:22:06.619Z,100448.17
2023-04-15T23:24:34.525Z,100458.95
2023-04-15T23:27:02.146Z,100455.29
2023-04-15T23:29:29.642Z,100455.48
2023-04-15T23:31:57.338Z,100461.69
2023-04-15T23:34:25.141Z,100453.31
2023-04-15T23:36:52.675Z,100463.12
2023-04-15T23:39:20.354Z,100466.09
2023-04-15T23:41:47.824Z,100461.40
2023-04-15T23:44:15.354Z,100464.77
2023-04-15T23:46:43.010Z,100466.81
2023-04-15T23:49:10.866Z,100475.37
2023-04-15T23:51:38.505Z,100474.79
2023-04-15T23:54:05.987Z,100479.86
2023-04-15T23:56:33.549Z,100479.56
2023-04-15T23:59:01.001Z,100481.81
